CSZ648 EPPO-LOWI
Flight info
| Callsign | CSZ648 |
|---|---|
| Flight time | N/A |
| Altitude | 34000 |
| Route | ERNOX P861 RASAN DCT ODLIV DCT RUDAP P31 DOSEL M736 TULSI |
| Aircraft | A21N/M-SDE2E3FGHILRWXY/LB2 |
Departure
| Time | 2026-05-07 11:50 |
|---|---|
| Airport | Poznań-Ławica Airport (EPPO) |
Arrival
| Time | N/A |
|---|---|
| Airport | Innsbruck Airport (LOWI) |
| Time | Latitude | Longitude | Altitude | Speed | Heading |
|---|---|---|---|---|---|
| 2026-05-07 11:27 | 52.41589 | 16.82662 | 317 ft | 0 kts | 182° |
| 2026-05-07 11:42 | 52.41601 | 16.82663 | 317 ft | 2 kts | 183° |
| 2026-05-07 11:42 | 52.41616 | 16.82664 | 317 ft | 2 kts | 184° |
| 2026-05-07 11:43 | 52.41631 | 16.82666 | 317 ft | 2 kts | 185° |
| 2026-05-07 11:43 | 52.41645 | 16.82668 | 317 ft | 1 kts | 184° |
| 2026-05-07 11:43 | 52.41655 | 16.82669 | 317 ft | 2 kts | 165° |
| 2026-05-07 11:43 | 52.41668 | 16.82656 | 317 ft | 2 kts | 126° |
| 2026-05-07 11:44 | 52.41673 | 16.82637 | 317 ft | 0 kts | 97° |
| 2026-05-07 11:44 | 52.41674 | 16.82626 | 317 ft | 1 kts | 92° |
| 2026-05-07 11:44 | 52.41674 | 16.82625 | 317 ft | 0 kts | 93° |
| 2026-05-07 11:46 | 52.41673 | 16.82635 | 317 ft | 2 kts | 93° |
| 2026-05-07 11:46 | 52.41670 | 16.82715 | 317 ft | 12 kts | 94° |
| 2026-05-07 11:46 | 52.41659 | 16.82881 | 317 ft | 15 kts | 101° |
| 2026-05-07 11:47 | 52.41636 | 16.83059 | 317 ft | 16 kts | 103° |
| 2026-05-07 11:47 | 52.41608 | 16.83261 | 317 ft | 22 kts | 102° |
| 2026-05-07 11:47 | 52.41575 | 16.83523 | 317 ft | 23 kts | 97° |
| 2026-05-07 11:47 | 52.41563 | 16.83784 | 317 ft | 22 kts | 92° |
| 2026-05-07 11:48 | 52.41627 | 16.83974 | 317 ft | 19 kts | 33° |
| 2026-05-07 11:48 | 52.41751 | 16.84056 | 317 ft | 16 kts | 21° |
| 2026-05-07 11:48 | 52.41815 | 16.84077 | 317 ft | 6 kts | 332° |
| 2026-05-07 11:48 | 52.41833 | 16.84025 | 317 ft | 3 kts | 289° |
| 2026-05-07 11:49 | 52.41871 | 16.83833 | 317 ft | 49 kts | 288° |
| 2026-05-07 11:49 | 52.42049 | 16.82892 | 317 ft | 119 kts | 288° |
| 2026-05-07 11:49 | 52.42366 | 16.81271 | 331 ft | 174 kts | 289° |
| 2026-05-07 11:49 | 52.42735 | 16.79345 | 905 ft | 179 kts | 289° |
| 2026-05-07 11:50 | 52.43109 | 16.77434 | 1667 ft | 178 kts | 290° |
| 2026-05-07 11:50 | 52.43488 | 16.75505 | 2357 ft | 183 kts | 290° |
| 2026-05-07 11:50 | 52.43891 | 16.73447 | 2802 ft | 197 kts | 289° |
| 2026-05-07 11:50 | 52.44323 | 16.71233 | 3186 ft | 214 kts | 289° |
| 2026-05-07 11:51 | 52.44800 | 16.68776 | 3502 ft | 236 kts | 289° |
| 2026-05-07 11:51 | 52.45307 | 16.66145 | 4030 ft | 248 kts | 289° |
| 2026-05-07 11:51 | 52.45828 | 16.63432 | 4811 ft | 250 kts | 289° |
| 2026-05-07 11:51 | 52.46348 | 16.60720 | 5591 ft | 251 kts | 288° |
| 2026-05-07 11:52 | 52.46869 | 16.58001 | 6337 ft | 253 kts | 288° |
| 2026-05-07 11:52 | 52.47391 | 16.55269 | 7064 ft | 254 kts | 287° |
| 2026-05-07 11:52 | 52.47575 | 16.52392 | 7741 ft | 258 kts | 261° |
| 2026-05-07 11:52 | 52.46883 | 16.49678 | 8421 ft | 263 kts | 233° |
| 2026-05-07 11:53 | 52.45477 | 16.47814 | 9079 ft | 268 kts | 206° |
| 2026-05-07 11:53 | 52.43696 | 16.46829 | 9780 ft | 271 kts | 197° |
| 2026-05-07 11:53 | 52.41797 | 16.46621 | 10208 ft | 286 kts | 172° |
| 2026-05-07 11:53 | 52.39912 | 16.47913 | 10470 ft | 307 kts | 144° |
| 2026-05-07 11:54 | 52.38540 | 16.50693 | 10727 ft | 327 kts | 115° |
| 2026-05-07 11:54 | 52.37786 | 16.54341 | 11045 ft | 341 kts | 108° |
| 2026-05-07 11:54 | 52.37127 | 16.58129 | 11512 ft | 349 kts | 108° |
| 2026-05-07 11:54 | 52.36445 | 16.61962 | 12149 ft | 351 kts | 108° |
| 2026-05-07 11:55 | 52.35736 | 16.65785 | 12755 ft | 353 kts | 110° |
| 2026-05-07 11:55 | 52.34682 | 16.69397 | 13257 ft | 354 kts | 130° |
| 2026-05-07 11:55 | 52.32877 | 16.72078 | 13795 ft | 350 kts | 153° |
| 2026-05-07 11:55 | 52.30619 | 16.73420 | 14322 ft | 346 kts | 175° |
| 2026-05-07 11:56 | 52.28228 | 16.73298 | 14829 ft | 344 kts | 196° |
| 2026-05-07 11:56 | 52.25928 | 16.72167 | 15379 ft | 344 kts | 201° |
| 2026-05-07 11:56 | 52.23650 | 16.70932 | 15880 ft | 348 kts | 201° |
| 2026-05-07 11:56 | 52.21355 | 16.69709 | 16380 ft | 351 kts | 201° |
| 2026-05-07 11:57 | 52.19018 | 16.68494 | 16882 ft | 353 kts | 200° |
| 2026-05-07 11:57 | 52.16758 | 16.67007 | 17337 ft | 353 kts | 214° |
| 2026-05-07 11:57 | 52.14922 | 16.64425 | 17790 ft | 350 kts | 233° |
| 2026-05-07 11:57 | 52.13744 | 16.60989 | 18249 ft | 350 kts | 251° |
| 2026-05-07 11:58 | 52.13021 | 16.57198 | 18742 ft | 351 kts | 254° |
| 2026-05-07 11:58 | 52.12328 | 16.53359 | 19187 ft | 353 kts | 254° |
| 2026-05-07 11:58 | 52.11633 | 16.49533 | 19576 ft | 357 kts | 254° |
| 2026-05-07 11:58 | 52.10916 | 16.45628 | 19886 ft | 362 kts | 254° |
| 2026-05-07 11:59 | 52.10187 | 16.41687 | 20285 ft | 365 kts | 254° |
| 2026-05-07 11:59 | 52.09450 | 16.37731 | 20709 ft | 366 kts | 254° |
| 2026-05-07 11:59 | 52.08706 | 16.33757 | 21118 ft | 368 kts | 253° |
| 2026-05-07 11:59 | 52.07949 | 16.29721 | 21522 ft | 370 kts | 254° |
| 2026-05-07 12:00 | 52.07201 | 16.25741 | 21907 ft | 372 kts | 254° |
| 2026-05-07 12:00 | 52.06440 | 16.21712 | 22287 ft | 373 kts | 254° |
| 2026-05-07 12:00 | 52.05669 | 16.17646 | 22659 ft | 375 kts | 254° |
| 2026-05-07 12:00 | 52.04906 | 16.13627 | 23014 ft | 377 kts | 254° |
| 2026-05-07 12:01 | 52.04131 | 16.09542 | 23365 ft | 379 kts | 254° |
| 2026-05-07 12:01 | 52.03188 | 16.05512 | 23684 ft | 383 kts | 244° |
| 2026-05-07 12:01 | 52.01640 | 16.01964 | 24006 ft | 391 kts | 230° |
| 2026-05-07 12:01 | 51.99491 | 15.99110 | 24320 ft | 400 kts | 216° |
| 2026-05-07 12:02 | 51.97071 | 15.96838 | 24646 ft | 403 kts | 213° |
| 2026-05-07 12:02 | 51.94631 | 15.94660 | 24922 ft | 406 kts | 213° |
| 2026-05-07 12:02 | 51.92135 | 15.92443 | 25199 ft | 408 kts | 213° |
| 2026-05-07 12:02 | 51.89634 | 15.90216 | 25481 ft | 410 kts | 214° |
| 2026-05-07 12:03 | 51.87127 | 15.87988 | 25754 ft | 412 kts | 214° |
| 2026-05-07 12:03 | 51.84584 | 15.85727 | 26021 ft | 414 kts | 214° |
| 2026-05-07 12:03 | 51.82067 | 15.83485 | 26278 ft | 416 kts | 214° |
| 2026-05-07 12:03 | 51.79538 | 15.81228 | 26529 ft | 418 kts | 214° |
| 2026-05-07 12:04 | 51.76954 | 15.78921 | 26778 ft | 421 kts | 214° |
| 2026-05-07 12:04 | 51.74394 | 15.76636 | 27018 ft | 422 kts | 214° |
| 2026-05-07 12:04 | 51.71834 | 15.74349 | 27226 ft | 425 kts | 215° |
| 2026-05-07 12:04 | 51.69249 | 15.71958 | 27426 ft | 427 kts | 216° |
| 2026-05-07 12:05 | 51.66663 | 15.69524 | 27653 ft | 429 kts | 216° |
| 2026-05-07 12:05 | 51.64102 | 15.67112 | 27879 ft | 431 kts | 216° |
| 2026-05-07 12:05 | 51.61488 | 15.64660 | 28104 ft | 433 kts | 216° |
| 2026-05-07 12:05 | 51.58886 | 15.62227 | 28324 ft | 435 kts | 216° |
| 2026-05-07 12:06 | 51.56249 | 15.59768 | 28540 ft | 437 kts | 216° |
| 2026-05-07 12:06 | 51.53634 | 15.57335 | 28749 ft | 438 kts | 216° |
| 2026-05-07 12:06 | 51.50985 | 15.54875 | 28957 ft | 440 kts | 216° |
| 2026-05-07 12:06 | 51.48310 | 15.52395 | 29183 ft | 442 kts | 216° |
| 2026-05-07 12:07 | 51.45635 | 15.49920 | 29470 ft | 441 kts | 216° |
| 2026-05-07 12:07 | 51.43002 | 15.47488 | 29761 ft | 441 kts | 216° |
| 2026-05-07 12:07 | 51.40323 | 15.45016 | 30043 ft | 441 kts | 216° |
| 2026-05-07 12:07 | 51.37687 | 15.42586 | 30310 ft | 441 kts | 216° |
| 2026-05-07 12:08 | 51.34993 | 15.40106 | 30579 ft | 441 kts | 217° |
| 2026-05-07 12:08 | 51.32341 | 15.37669 | 30843 ft | 441 kts | 217° |
| 2026-05-07 12:08 | 51.29695 | 15.35240 | 31105 ft | 441 kts | 217° |
| 2026-05-07 12:08 | 51.27119 | 15.32872 | 31358 ft | 441 kts | 216° |
| 2026-05-07 12:09 | 51.24358 | 15.30332 | 31625 ft | 442 kts | 216° |
| 2026-05-07 12:09 | 51.21692 | 15.27888 | 31886 ft | 442 kts | 216° |
| 2026-05-07 12:09 | 51.19025 | 15.25452 | 32149 ft | 442 kts | 216° |
| 2026-05-07 12:09 | 51.16341 | 15.23004 | 32387 ft | 443 kts | 216° |
| 2026-05-07 12:10 | 51.13669 | 15.20569 | 32589 ft | 445 kts | 216° |
| 2026-05-07 12:10 | 51.10967 | 15.18111 | 32784 ft | 446 kts | 216° |
| 2026-05-07 12:10 | 51.08283 | 15.15673 | 32980 ft | 448 kts | 216° |
| 2026-05-07 12:10 | 51.05548 | 15.13258 | 33174 ft | 451 kts | 214° |
| 2026-05-07 12:11 | 51.02748 | 15.11073 | 33364 ft | 455 kts | 211° |
| 2026-05-07 12:11 | 50.99788 | 15.09109 | 33519 ft | 462 kts | 209° |
| 2026-05-07 12:11 | 50.96705 | 15.07399 | 33612 ft | 470 kts | 206° |
| 2026-05-07 12:12 | 50.90344 | 15.04574 | 33795 ft | 481 kts | 206° |
| 2026-05-07 12:12 | 50.83819 | 15.01766 | 33964 ft | 489 kts | 206° |
| 2026-05-07 12:13 | 50.77193 | 14.98896 | 33997 ft | 497 kts | 206° |
| 2026-05-07 12:13 | 50.70541 | 14.96030 | 33999 ft | 497 kts | 206° |
| 2026-05-07 12:14 | 50.63857 | 14.93163 | 34000 ft | 496 kts | 206° |
| 2026-05-07 12:14 | 50.57234 | 14.90311 | 33999 ft | 493 kts | 207° |
| 2026-05-07 12:15 | 50.50879 | 14.86641 | 34000 ft | 477 kts | 216° |
| 2026-05-07 12:15 | 50.45175 | 14.81692 | 34000 ft | 462 kts | 226° |
| 2026-05-07 12:16 | 50.40146 | 14.75675 | 34001 ft | 450 kts | 233° |
| 2026-05-07 12:16 | 50.35395 | 14.69319 | 34000 ft | 449 kts | 233° |
| 2026-05-07 12:17 | 50.30615 | 14.62961 | 34000 ft | 450 kts | 233° |
| 2026-05-07 12:17 | 50.25834 | 14.56643 | 34000 ft | 450 kts | 233° |
| 2026-05-07 12:18 | 50.21027 | 14.50321 | 34000 ft | 450 kts | 232° |
| 2026-05-07 12:18 | 50.16221 | 14.44018 | 34000 ft | 450 kts | 232° |
| 2026-05-07 12:19 | 50.11415 | 14.37734 | 34000 ft | 450 kts | 232° |
| 2026-05-07 12:19 | 50.06629 | 14.31484 | 34000 ft | 450 kts | 232° |
| 2026-05-07 12:20 | 50.01818 | 14.25203 | 33999 ft | 451 kts | 232° |
| 2026-05-07 12:20 | 49.96992 | 14.18935 | 33999 ft | 451 kts | 232° |
| 2026-05-07 12:21 | 49.92160 | 14.12682 | 33999 ft | 451 kts | 232° |
| 2026-05-07 12:21 | 49.87345 | 14.06487 | 33997 ft | 451 kts | 232° |
| 2026-05-07 12:22 | 49.82482 | 14.00273 | 33999 ft | 451 kts | 232° |
| 2026-05-07 12:22 | 49.77645 | 13.94085 | 33999 ft | 451 kts | 232° |
| 2026-05-07 12:23 | 49.72795 | 13.87884 | 33999 ft | 451 kts | 232° |
| 2026-05-07 12:23 | 49.67953 | 13.81705 | 33998 ft | 451 kts | 232° |
| 2026-05-07 12:24 | 49.63148 | 13.75590 | 33996 ft | 451 kts | 232° |
| 2026-05-07 12:24 | 49.58293 | 13.69426 | 33992 ft | 451 kts | 232° |
| 2026-05-07 12:25 | 49.53419 | 13.63254 | 33979 ft | 452 kts | 232° |
| 2026-05-07 12:25 | 49.48550 | 13.57107 | 33970 ft | 452 kts | 232° |
| 2026-05-07 12:26 | 49.43668 | 13.50961 | 33966 ft | 452 kts | 232° |
| 2026-05-07 12:26 | 49.38825 | 13.44882 | 33965 ft | 452 kts | 232° |
| 2026-05-07 12:27 | 49.33933 | 13.38761 | 33964 ft | 452 kts | 232° |
| 2026-05-07 12:27 | 49.29064 | 13.32678 | 33965 ft | 453 kts | 231° |
| 2026-05-07 12:28 | 49.23918 | 13.26908 | 33965 ft | 464 kts | 224° |
| 2026-05-07 12:28 | 49.18239 | 13.21997 | 33965 ft | 475 kts | 217° |
| 2026-05-07 12:29 | 49.12333 | 13.17626 | 33965 ft | 475 kts | 217° |
| 2026-05-07 12:29 | 49.06403 | 13.13206 | 33963 ft | 475 kts | 217° |
| 2026-05-07 12:30 | 49.00433 | 13.08753 | 33963 ft | 477 kts | 217° |
| 2026-05-07 12:30 | 48.94467 | 13.04328 | 33964 ft | 480 kts | 216° |
| 2026-05-07 12:31 | 48.88483 | 12.99923 | 33961 ft | 478 kts | 216° |
| 2026-05-07 12:31 | 48.82494 | 12.95547 | 33965 ft | 475 kts | 216° |
| 2026-05-07 12:32 | 48.76664 | 12.91032 | 33965 ft | 468 kts | 220° |
| 2026-05-07 12:32 | 48.71273 | 12.85621 | 33975 ft | 457 kts | 228° |
| 2026-05-07 12:33 | 48.64205 | 12.76245 | 33998 ft | 449 kts | 233° |
| 2026-05-07 12:33 | 48.59594 | 12.69834 | 34008 ft | 449 kts | 233° |
| 2026-05-07 12:34 | 48.54997 | 12.63446 | 34013 ft | 449 kts | 233° |
| 2026-05-07 12:34 | 48.50390 | 12.57067 | 34016 ft | 448 kts | 233° |
| 2026-05-07 12:35 | 48.45787 | 12.50714 | 34017 ft | 448 kts | 233° |
| 2026-05-07 12:35 | 48.41120 | 12.44536 | 34017 ft | 451 kts | 231° |
| 2026-05-07 12:36 | 48.36319 | 12.38395 | 34018 ft | 452 kts | 231° |
| 2026-05-07 12:36 | 48.31547 | 12.32309 | 34018 ft | 452 kts | 231° |
| 2026-05-07 12:37 | 48.26733 | 12.26169 | 34017 ft | 453 kts | 231° |
| 2026-05-07 12:37 | 48.21930 | 12.20072 | 34017 ft | 453 kts | 231° |
| 2026-05-07 12:38 | 48.17113 | 12.13983 | 34017 ft | 453 kts | 231° |
| 2026-05-07 12:38 | 48.12277 | 12.07887 | 33832 ft | 452 kts | 231° |
| 2026-05-07 12:39 | 48.09872 | 12.04857 | 33150 ft | 455 kts | 230° |
| 2026-05-07 12:39 | 48.07449 | 12.01802 | 32280 ft | 458 kts | 230° |
| 2026-05-07 12:39 | 48.05000 | 11.98722 | 31499 ft | 459 kts | 229° |
| 2026-05-07 12:39 | 48.02555 | 11.95661 | 30803 ft | 456 kts | 229° |
| 2026-05-07 12:40 | 48.00107 | 11.92605 | 30100 ft | 454 kts | 229° |
| 2026-05-07 12:40 | 47.97715 | 11.89626 | 29529 ft | 448 kts | 229° |
| 2026-05-07 12:40 | 47.95348 | 11.86684 | 29041 ft | 441 kts | 228° |
| 2026-05-07 12:40 | 47.92995 | 11.83760 | 28610 ft | 433 kts | 228° |
| 2026-05-07 12:41 | 47.90699 | 11.80906 | 28196 ft | 425 kts | 228° |
| 2026-05-07 12:41 | 47.88601 | 11.77879 | 27815 ft | 403 kts | 241° |
| 2026-05-07 12:41 | 47.87448 | 11.74327 | 27466 ft | 376 kts | 262° |
| 2026-05-07 12:41 | 47.87143 | 11.70535 | 27139 ft | 360 kts | 273° |
| 2026-05-07 12:42 | 47.87447 | 11.66912 | 26789 ft | 349 kts | 286° |
| 2026-05-07 12:42 | 47.88399 | 11.63621 | 26437 ft | 344 kts | 300° |
| 2026-05-07 12:42 | 47.89908 | 11.60907 | 26092 ft | 343 kts | 314° |
| 2026-05-07 12:42 | 47.91905 | 11.58888 | 25743 ft | 346 kts | 328° |
| 2026-05-07 12:43 | 47.94185 | 11.57789 | 25404 ft | 353 kts | 343° |
| 2026-05-07 12:43 | 47.96680 | 11.57689 | 25061 ft | 363 kts | 359° |
| 2026-05-07 12:43 | 47.99146 | 11.58698 | 24722 ft | 374 kts | 16° |
| 2026-05-07 12:43 | 48.01389 | 11.60806 | 24398 ft | 382 kts | 31° |
| 2026-05-07 12:44 | 48.03417 | 11.63345 | 24081 ft | 379 kts | 33° |
| 2026-05-07 12:44 | 48.05246 | 11.66095 | 23752 ft | 383 kts | 49° |
| 2026-05-07 12:44 | 48.06451 | 11.69724 | 23438 ft | 387 kts | 72° |
| 2026-05-07 12:44 | 48.06816 | 11.73655 | 23181 ft | 384 kts | 92° |
| 2026-05-07 12:45 | 48.06383 | 11.77543 | 22924 ft | 378 kts | 114° |
| 2026-05-07 12:45 | 48.05049 | 11.80881 | 22661 ft | 381 kts | 141° |
| 2026-05-07 12:45 | 48.02883 | 11.83068 | 22408 ft | 373 kts | 168° |
| 2026-05-07 12:45 | 48.00349 | 11.83645 | 22167 ft | 371 kts | 192° |
| 2026-05-07 12:46 | 47.97794 | 11.82928 | 21939 ft | 381 kts | 201° |
| 2026-05-07 12:46 | 47.95205 | 11.81953 | 21689 ft | 385 kts | 200° |
| 2026-05-07 12:46 | 47.92602 | 11.81100 | 21315 ft | 383 kts | 198° |
| 2026-05-07 12:46 | 47.89985 | 11.80397 | 20758 ft | 384 kts | 195° |
| 2026-05-07 12:47 | 47.87330 | 11.79936 | 20237 ft | 384 kts | 191° |
| 2026-05-07 12:47 | 47.84654 | 11.79713 | 19759 ft | 381 kts | 189° |
| 2026-05-07 12:47 | 47.82045 | 11.79545 | 19293 ft | 377 kts | 189° |
| 2026-05-07 12:47 | 47.79440 | 11.79388 | 18807 ft | 374 kts | 188° |
| 2026-05-07 12:48 | 47.76832 | 11.79237 | 18312 ft | 371 kts | 188° |
| 2026-05-07 12:48 | 47.74300 | 11.79093 | 17827 ft | 367 kts | 188° |
| 2026-05-07 12:48 | 47.71756 | 11.79138 | 17327 ft | 369 kts | 181° |
| 2026-05-07 12:48 | 47.69185 | 11.79691 | 16826 ft | 371 kts | 173° |
| 2026-05-07 12:49 | 47.66714 | 11.80743 | 16345 ft | 372 kts | 166° |
| 2026-05-07 12:49 | 47.64319 | 11.82060 | 15885 ft | 369 kts | 164° |
| 2026-05-07 12:49 | 47.61937 | 11.83426 | 15416 ft | 366 kts | 164° |
| 2026-05-07 12:49 | 47.59560 | 11.84783 | 14944 ft | 362 kts | 164° |
| 2026-05-07 12:50 | 47.57237 | 11.86094 | 14475 ft | 359 kts | 164° |
| 2026-05-07 12:50 | 47.54914 | 11.87396 | 14001 ft | 356 kts | 164° |
| 2026-05-07 12:50 | 47.52548 | 11.88333 | 13507 ft | 348 kts | 176° |
| 2026-05-07 12:50 | 47.50187 | 11.88420 | 13094 ft | 338 kts | 189° |
| 2026-05-07 12:51 | 47.47901 | 11.87715 | 12977 ft | 335 kts | 201° |
| 2026-05-07 12:51 | 47.45781 | 11.86292 | 12970 ft | 333 kts | 213° |
| 2026-05-07 12:51 | 47.43941 | 11.84236 | 12967 ft | 332 kts | 225° |
| 2026-05-07 12:51 | 47.42462 | 11.81656 | 12965 ft | 331 kts | 236° |
| 2026-05-07 12:52 | 47.41398 | 11.78659 | 12964 ft | 332 kts | 248° |
| 2026-05-07 12:52 | 47.40795 | 11.75341 | 12963 ft | 334 kts | 260° |
| 2026-05-07 12:52 | 47.40633 | 11.71883 | 12967 ft | 336 kts | 265° |
| 2026-05-07 12:52 | 47.40448 | 11.68473 | 12966 ft | 335 kts | 261° |
| 2026-05-07 12:53 | 47.40149 | 11.65071 | 12965 ft | 334 kts | 260° |